Time;durP1;ratioP1;P1;durP2;ratioP2;P2;SDS_P1;SDS_P2;PMS_P1;PMS_P2;Temp;Humidity;BMP_temperature;BMP_pressure;BME280_temperature;BME280_humidity;BME280_pressure;Samples;Min_cycle;Max_cycle;Signal;HPM_P1;HPM_P2
2023/06/30 00:00:27;;;;;;;4.77;2.63;;;21.20;99.90;;;;;;5050794;28;20595;-71
2023/06/30 00:02:52;;;;;;;2.63;2.43;;;21.20;99.90;;;;;;5051491;28;20166;-71
2023/06/30 00:05:18;;;;;;;2.10;1.90;;;21.10;99.90;;;;;;5051256;28;20202;-71
2023/06/30 00:07:44;;;;;;;2.23;2.00;;;21.10;99.90;;;;;;5051869;28;20674;-71
2023/06/30 00:10:10;;;;;;;2.53;2.00;;;21.00;99.90;;;;;;5051781;28;20217;-71
2023/06/30 00:12:35;;;;;;;2.83;1.97;;;21.00;99.90;;;;;;5051649;28;20258;-72
2023/06/30 00:15:02;;;;;;;2.37;1.80;;;20.90;99.90;;;;;;5051383;28;20437;-72
2023/06/30 00:17:27;;;;;;;1.70;1.40;;;20.90;99.90;;;;;;5051706;28;20210;-72
2023/06/30 00:19:53;;;;;;;1.70;1.60;;;20.90;99.90;;;;;;5051688;28;20937;-71
2023/06/30 00:22:22;;;;;;;1.30;1.20;;;20.90;99.90;;;;;;5050589;28;20175;-72
2023/06/30 00:24:54;;;;;;;2.70;1.47;;;20.90;99.90;;;;;;5050667;28;20265;-71
2023/06/30 00:27:20;;;;;;;2.30;1.80;;;20.90;99.90;;;;;;5052958;28;20430;-72
2023/06/30 00:29:46;;;;;;;3.40;1.60;;;20.90;99.90;;;;;;5051467;28;20807;-71
2023/06/30 00:32:11;;;;;;;1.43;0.83;;;20.90;99.90;;;;;;5054648;28;20404;-71
2023/06/30 00:34:37;;;;;;;1.10;1.00;;;20.90;99.90;;;;;;5055198;28;20179;-71
2023/06/30 00:37:03;;;;;;;1.20;1.10;;;20.90;99.90;;;;;;5053893;28;20664;-71
2023/06/30 00:39:28;;;;;;;1.43;1.13;;;20.80;99.90;;;;;;5055210;28;20171;-71
2023/06/30 00:41:54;;;;;;;1.57;1.40;;;20.80;99.90;;;;;;5055041;28;20413;-72
2023/06/30 00:44:19;;;;;;;1.03;0.90;;;20.70;99.90;;;;;;5054883;28;20171;-71
2023/06/30 00:46:45;;;;;;;1.23;1.10;;;20.70;99.90;;;;;;5054706;28;20678;-70
2023/06/30 00:49:11;;;;;;;3.73;0.90;;;20.60;99.90;;;;;;5054968;28;20163;-71
2023/06/30 00:51:36;;;;;;;1.53;0.93;;;20.60;99.90;;;;;;5054794;28;20169;-72
2023/06/30 00:54:02;;;;;;;1.30;1.00;;;20.50;99.90;;;;;;5054949;28;20234;-71
2023/06/30 00:56:28;;;;;;;1.27;0.80;;;20.50;99.90;;;;;;5054450;28;20563;-71
2023/06/30 00:58:54;;;;;;;1.30;1.20;;;20.60;99.90;;;;;;5054647;28;20412;-71
2023/06/30 01:01:46;;;;;;;0.90;0.80;;;20.50;99.90;;;;;;5054813;28;20163;-71
2023/06/30 01:04:30;;;;;;;5.17;0.97;;;20.50;99.90;;;;;;5054324;28;20262;-70
2023/06/30 01:07:08;;;;;;;2.67;1.03;;;20.50;99.90;;;;;;5054230;28;20441;-71
2023/06/30 01:09:38;;;;;;;1.67;1.00;;;20.40;99.90;;;;;;5054645;28;20399;-71
2023/06/30 01:12:05;;;;;;;2.30;1.10;;;20.40;99.90;;;;;;5053247;28;20448;-71
2023/06/30 01:14:31;;;;;;;1.37;0.80;;;20.30;99.90;;;;;;5054497;28;20409;-70
2023/06/30 01:16:58;;;;;;;1.47;1.13;;;20.20;99.90;;;;;;5054077;28;20451;-70
2023/06/30 01:19:35;;;;;;;1.00;0.80;;;20.20;99.90;;;;;;5054357;28;20401;-71
2023/06/30 01:22:13;;;;;;;1.00;0.90;;;20.20;99.90;;;;;;5054272;28;20869;-71
2023/06/30 01:24:41;;;;;;;2.77;0.97;;;20.20;99.90;;;;;;5054215;28;20441;-71
2023/06/30 01:27:06;;;;;;;1.73;1.10;;;20.20;99.90;;;;;;5053901;28;20918;-71
2023/06/30 01:29:32;;;;;;;2.20;1.17;;;20.20;99.90;;;;;;5054122;28;20451;-70
2023/06/30 01:31:58;;;;;;;1.50;1.00;;;20.20;99.90;;;;;;5054140;28;20246;-71
2023/06/30 01:34:24;;;;;;;1.60;1.50;;;20.20;99.90;;;;;;5054096;28;20257;-70
2023/06/30 01:36:50;;;;;;;1.47;1.03;;;20.20;99.90;;;;;;5053637;28;21064;-71
2023/06/30 01:39:15;;;;;;;1.20;1.00;;;20.20;99.90;;;;;;5053984;28;20155;-71
2023/06/30 01:41:42;;;;;;;1.77;1.47;;;20.30;99.90;;;;;;5053444;28;20174;-71
2023/06/30 01:44:08;;;;;;;1.20;1.00;;;20.20;99.90;;;;;;5053494;28;20412;-71
2023/06/30 01:46:34;;;;;;;5.50;1.10;;;20.20;99.90;;;;;;5053537;28;20553;-71
2023/06/30 01:49:00;;;;;;;1.93;1.20;;;20.20;99.90;;;;;;5053786;28;20539;-71
2023/06/30 01:51:25;;;;;;;1.50;1.20;;;20.20;99.90;;;;;;5053930;28;20186;-71
2023/06/30 01:53:51;;;;;;;1.40;1.30;;;20.30;99.90;;;;;;5053613;28;20167;-71
2023/06/30 01:56:16;;;;;;;2.43;1.43;;;20.30;99.90;;;;;;5053516;28;20195;-71
2023/06/30 01:58:42;;;;;;;1.77;1.40;;;20.20;99.90;;;;;;5053740;28;20205;-72
2023/06/30 02:01:08;;;;;;;3.90;1.33;;;20.20;99.90;;;;;;5053779;28;20171;-71
2023/06/30 02:03:33;;;;;;;3.60;2.03;;;20.20;99.90;;;;;;5054122;28;20579;-71
2023/06/30 02:05:59;;;;;;;2.93;1.70;;;20.10;99.90;;;;;;5053359;28;20195;-71
2023/06/30 02:08:24;;;;;;;1.77;1.67;;;20.00;99.90;;;;;;5053652;28;20217;-72
2023/06/30 02:10:50;;;;;;;1.70;1.60;;;19.90;99.90;;;;;;5053458;28;20171;-71
2023/06/30 02:13:15;;;;;;;2.20;2.00;;;19.90;99.90;;;;;;5053488;28;20209;-70
2023/06/30 02:15:41;;;;;;;2.70;1.93;;;19.80;99.90;;;;;;5053168;28;20191;-71
2023/06/30 02:18:06;;;;;;;1.80;1.67;;;19.80;99.90;;;;;;5053275;28;20191;-71
2023/06/30 02:20:32;;;;;;;2.87;1.57;;;19.80;99.90;;;;;;5053454;28;20175;-71
2023/06/30 02:22:58;;;;;;;2.17;1.63;;;19.80;99.90;;;;;;5053313;28;20555;-70
2023/06/30 02:25:24;;;;;;;1.77;1.23;;;19.80;99.90;;;;;;5052904;28;20544;-70
2023/06/30 02:27:50;;;;;;;2.10;1.90;;;19.80;99.90;;;;;;5052973;28;20930;-71
2023/06/30 02:30:16;;;;;;;1.50;1.40;;;19.80;99.90;;;;;;5053234;28;20163;-71
2023/06/30 02:32:41;;;;;;;5.43;2.33;;;19.90;99.90;;;;;;5051746;28;20414;-71
2023/06/30 02:35:08;;;;;;;2.00;1.90;;;19.90;99.90;;;;;;5052746;28;20174;-71
2023/06/30 02:37:35;;;;;;;2.30;2.10;;;19.80;99.90;;;;;;5052993;28;20191;-71
2023/06/30 02:40:01;;;;;;;4.90;2.03;;;19.80;99.90;;;;;;5051696;28;20475;-71
2023/06/30 02:42:26;;;;;;;3.23;2.40;;;19.70;99.90;;;;;;5053024;28;20413;-71
2023/06/30 02:44:52;;;;;;;1.67;1.57;;;19.70;99.90;;;;;;5051939;28;20610;-72
2023/06/30 02:47:17;;;;;;;2.33;1.97;;;19.60;99.90;;;;;;5052705;28;20213;-71
2023/06/30 02:49:43;;;;;;;1.57;1.47;;;19.50;99.90;;;;;;5053081;28;20177;-71
2023/06/30 02:52:09;;;;;;;2.73;2.00;;;19.50;99.90;;;;;;5052682;28;20170;-71
2023/06/30 02:54:34;;;;;;;3.63;2.50;;;19.50;99.90;;;;;;5052892;28;20220;-71
2023/06/30 02:57:00;;;;;;;3.10;1.73;;;19.50;99.90;;;;;;5052450;28;20829;-71
2023/06/30 02:59:25;;;;;;;2.13;2.00;;;19.50;99.90;;;;;;5052824;28;20654;-71
2023/06/30 03:01:51;;;;;;;2.20;1.90;;;19.50;99.90;;;;;;5052778;28;20163;-71
2023/06/30 03:04:17;;;;;;;2.90;2.00;;;19.60;99.90;;;;;;5052654;28;20646;-71
2023/06/30 03:06:42;;;;;;;3.67;2.63;;;19.60;99.90;;;;;;5051933;28;20217;-72
2023/06/30 03:09:08;;;;;;;3.13;2.60;;;19.60;99.90;;;;;;5051220;28;20179;-71
2023/06/30 03:11:34;;;;;;;3.73;2.40;;;19.60;99.90;;;;;;5052674;28;20163;-71
2023/06/30 03:13:59;;;;;;;3.70;2.80;;;19.50;99.90;;;;;;5052538;28;20185;-71
2023/06/30 03:16:25;;;;;;;3.23;2.50;;;19.50;99.90;;;;;;5052162;28;20429;-72
2023/06/30 03:18:50;;;;;;;2.60;2.40;;;19.40;99.90;;;;;;5052562;28;20640;-71
2023/06/30 03:21:16;;;;;;;2.30;2.10;;;19.40;99.90;;;;;;5052491;28;20163;-71
2023/06/30 03:23:42;;;;;;;2.67;2.40;;;19.40;99.90;;;;;;5050832;28;20166;-71
2023/06/30 03:26:07;;;;;;;5.20;3.20;;;19.30;99.90;;;;;;5051727;28;20203;-71
2023/06/30 03:28:33;;;;;;;4.87;2.47;;;19.30;99.90;;;;;;5052171;28;20526;-71
2023/06/30 03:30:58;;;;;;;5.30;2.70;;;19.10;99.90;;;;;;5050969;28;20174;-72
2023/06/30 03:33:24;;;;;;;3.07;2.70;;;19.20;99.90;;;;;;5052569;28;20178;-72
2023/06/30 03:35:50;;;;;;;3.60;2.70;;;19.20;99.90;;;;;;5052848;28;20198;-71
2023/06/30 03:38:16;;;;;;;3.97;3.00;;;19.20;99.90;;;;;;5052520;28;20214;-71
2023/06/30 03:40:42;;;;;;;2.40;2.20;;;19.20;99.90;;;;;;5050846;28;20448;-71
2023/06/30 03:43:07;;;;;;;3.93;2.63;;;19.10;99.90;;;;;;5052398;28;20171;-71
2023/06/30 03:45:33;;;;;;;3.83;2.70;;;19.20;99.90;;;;;;5051912;28;20681;-71
2023/06/30 03:47:58;;;;;;;4.33;3.20;;;19.20;99.90;;;;;;5052228;28;20265;-71
2023/06/30 03:50:24;;;;;;;3.60;2.57;;;19.20;99.90;;;;;;5052149;28;20171;-71
2023/06/30 03:52:49;;;;;;;6.77;4.90;;;19.20;99.90;;;;;;5052088;28;20174;-72
2023/06/30 03:55:15;;;;;;;8.67;4.90;;;19.20;99.90;;;;;;5051676;28;20167;-71
2023/06/30 03:57:40;;;;;;;3.50;2.80;;;19.10;99.90;;;;;;5052120;28;20262;-71
2023/06/30 04:00:11;;;;;;;4.57;3.53;;;19.00;99.90;;;;;;5052094;28;20221;-72
2023/06/30 04:02:37;;;;;;;5.20;4.00;;;19.00;99.90;;;;;;5051994;28;20216;-72
2023/06/30 04:05:02;;;;;;;4.57;3.33;;;18.90;99.90;;;;;;5051722;28;20868;-72
2023/06/30 04:07:28;;;;;;;10.90;4.93;;;18.90;99.90;;;;;;5055809;28;20214;-72
2023/06/30 04:09:53;;;;;;;6.10;4.10;;;18.80;99.90;;;;;;5055639;28;20195;-72
2023/06/30 04:12:19;;;;;;;4.10;2.87;;;18.80;99.90;;;;;;5055864;28;20652;-72
2023/06/30 04:14:45;;;;;;;11.90;3.63;;;18.70;99.90;;;;;;5055649;28;20205;-73
2023/06/30 04:17:10;;;;;;;6.20;3.70;;;18.70;99.90;;;;;;5055371;28;20225;-72
2023/06/30 04:19:36;;;;;;;4.53;3.83;;;18.70;99.90;;;;;;5055693;28;20947;-72
2023/06/30 04:22:01;;;;;;;9.03;6.13;;;18.70;99.90;;;;;;5055484;28;20174;-73
2023/06/30 04:24:27;;;;;;;5.57;5.07;;;18.60;99.90;;;;;;5054978;28;20190;-73
2023/06/30 04:26:52;;;;;;;5.80;4.70;;;18.60;99.90;;;;;;5054876;28;20670;-73
2023/06/30 04:29:18;;;;;;;4.67;4.27;;;18.50;99.90;;;;;;5053928;28;20173;-71
2023/06/30 04:31:44;;;;;;;5.00;4.20;;;18.40;99.90;;;;;;5055262;28;20187;-69
2023/06/30 04:34:09;;;;;;;4.10;3.70;;;18.30;99.90;;;;;;5055222;28;20166;-70
2023/06/30 04:36:35;;;;;;;5.13;4.40;;;18.20;99.90;;;;;;5054938;28;20187;-70
2023/06/30 04:39:00;;;;;;;5.13;3.73;;;18.10;99.90;;;;;;5055067;28;20171;-70
2023/06/30 04:41:26;;;;;;;5.47;3.40;;;18.00;99.90;;;;;;5055104;28;20174;-70
2023/06/30 04:43:51;;;;;;;5.07;3.50;;;17.90;99.90;;;;;;5055263;28;20159;-70
2023/06/30 04:46:17;;;;;;;5.20;4.33;;;17.80;99.90;;;;;;5054649;28;20199;-69
2023/06/30 04:48:42;;;;;;;6.83;4.40;;;17.80;99.90;;;;;;5054982;28;20249;-71
2023/06/30 04:51:08;;;;;;;7.00;3.40;;;17.70;99.90;;;;;;5054900;28;20163;-70
2023/06/30 04:53:33;;;;;;;3.90;3.43;;;17.70;99.90;;;;;;5054914;28;20164;-70
2023/06/30 04:55:59;;;;;;;8.47;4.03;;;17.70;99.90;;;;;;5054490;28;20246;-70
2023/06/30 04:58:24;;;;;;;3.30;3.00;;;17.70;99.90;;;;;;5054720;28;20166;-72
2023/06/30 05:00:50;;;;;;;5.70;3.20;;;17.70;99.90;;;;;;5054890;28;20174;-70
2023/06/30 05:03:15;;;;;;;4.37;3.30;;;17.70;99.90;;;;;;5054880;28;20171;-70
2023/06/30 05:05:41;;;;;;;3.73;3.37;;;17.80;99.90;;;;;;5054401;28;20248;-70
2023/06/30 05:08:06;;;;;;;7.47;3.67;;;17.80;99.90;;;;;;5055215;28;20346;-70
2023/06/30 05:10:32;;;;;;;4.63;4.17;;;17.90;99.90;;;;;;5057685;28;20159;-70
2023/06/30 05:12:58;;;;;;;4.07;3.50;;;18.00;99.90;;;;;;5054505;28;20167;-70
2023/06/30 05:15:23;;;;;;;4.47;4.10;;;18.10;99.90;;;;;;5054234;28;20560;-70
2023/06/30 05:17:49;;;;;;;7.90;4.33;;;18.20;99.90;;;;;;5051944;28;20190;-69
2023/06/30 05:20:15;;;;;;;5.93;3.40;;;18.40;99.90;;;;;;5054333;28;20171;-70
2023/06/30 05:22:40;;;;;;;8.13;4.13;;;18.50;99.90;;;;;;5054264;28;20575;-70
2023/06/30 05:25:06;;;;;;;5.70;3.03;;;18.60;99.90;;;;;;5053871;28;20483;-70
2023/06/30 05:27:32;;;;;;;7.53;4.07;;;18.70;99.90;;;;;;5054112;28;20187;-71
2023/06/30 05:29:57;;;;;;;3.23;2.60;;;18.70;99.90;;;;;;5054199;28;20401;-71
2023/06/30 05:32:23;;;;;;;4.47;2.43;;;18.80;99.90;;;;;;5054205;28;20177;-70
2023/06/30 05:34:50;;;;;;;9.57;3.50;;;18.80;99.90;;;;;;5054013;28;20171;-70
2023/06/30 05:37:15;;;;;;;4.43;2.23;;;18.80;99.90;;;;;;5053686;28;20233;-70
2023/06/30 05:39:41;;;;;;;3.37;2.70;;;18.80;99.90;;;;;;5054165;28;20804;-70
2023/06/30 05:42:07;;;;;;;3.60;2.30;;;18.90;99.90;;;;;;5053950;28;20623;-71
2023/06/30 05:44:32;;;;;;;2.47;2.27;;;18.90;99.90;;;;;;5053851;28;20603;-71
2023/06/30 05:46:58;;;;;;;4.40;2.70;;;19.00;99.90;;;;;;5053673;28;20193;-70
2023/06/30 05:49:25;;;;;;;4.20;2.50;;;19.10;99.90;;;;;;5053496;28;20254;-70
2023/06/30 05:51:50;;;;;;;5.83;2.87;;;19.20;99.90;;;;;;5053666;28;20238;-70
2023/06/30 05:54:16;;;;;;;4.53;2.77;;;19.20;99.90;;;;;;5053719;28;20488;-70
2023/06/30 05:56:41;;;;;;;7.20;3.23;;;19.10;99.90;;;;;;5053360;28;20833;-69
2023/06/30 05:59:10;;;;;;;8.70;2.67;;;19.10;99.90;;;;;;5053517;28;20620;-71
2023/06/30 06:01:38;;;;;;;6.00;2.50;;;19.00;99.90;;;;;;5053470;28;20171;-71
2023/06/30 06:04:10;;;;;;;3.50;2.90;;;18.90;99.90;;;;;;5053486;28;20433;-70
2023/06/30 06:06:36;;;;;;;3.63;2.83;;;18.90;99.90;;;;;;5052933;28;20467;-70
2023/06/30 06:09:02;;;;;;;4.50;2.80;;;18.90;99.90;;;;;;5053419;28;20394;-70
2023/06/30 06:11:27;;;;;;;5.87;2.47;;;19.00;99.90;;;;;;5053309;28;20497;-69
2023/06/30 06:13:53;;;;;;;3.60;2.03;;;19.00;99.90;;;;;;5053276;28;20163;-70
2023/06/30 06:16:20;;;;;;;3.60;3.03;;;19.20;99.90;;;;;;5052815;28;20202;-70
2023/06/30 06:18:45;;;;;;;6.97;2.80;;;19.50;99.90;;;;;;5053057;28;20162;-70
2023/06/30 06:21:11;;;;;;;2.73;2.53;;;20.00;99.90;;;;;;5053053;28;20401;-70
2023/06/30 06:23:36;;;;;;;4.97;2.83;;;20.60;99.90;;;;;;5051843;28;20213;-70
2023/06/30 06:26:02;;;;;;;5.77;2.93;;;21.10;99.90;;;;;;5052514;28;20190;-69
2023/06/30 06:28:27;;;;;;;4.97;3.40;;;21.30;99.90;;;;;;5052769;28;20202;-71
2023/06/30 06:30:53;;;;;;;3.07;2.70;;;21.30;99.90;;;;;;5053037;28;20173;-69
2023/06/30 06:33:19;;;;;;;3.30;2.90;;;21.30;99.90;;;;;;5052883;28;20635;-71
2023/06/30 06:35:44;;;;;;;3.77;3.00;;;21.10;99.90;;;;;;5052759;28;20197;-70
2023/06/30 06:38:10;;;;;;;8.27;2.80;;;21.60;99.90;;;;;;5052865;28;20188;-70
2023/06/30 06:40:35;;;;;;;6.03;3.73;;;22.80;99.90;;;;;;5052882;28;20167;-70
2023/06/30 06:43:01;;;;;;;4.77;2.20;;;24.00;99.90;;;;;;5052780;28;20179;-69
2023/06/30 06:45:27;;;;;;;5.40;2.07;;;25.00;99.90;;;;;;5052660;28;20237;-67
2023/06/30 06:48:24;;;;;;;4.07;2.07;;;26.40;99.90;;;;;;5052579;28;20182;-67
2023/06/30 06:50:53;;;;;;;3.30;1.50;;;27.40;99.90;;;;;;5052571;28;20389;-68
2023/06/30 06:53:26;;;;;;;4.53;1.90;;;27.80;99.90;;;;;;5052596;28;21089;-69
2023/06/30 06:55:53;;;;;;;2.80;1.90;;;28.70;99.90;;;;;;5052251;28;20393;-70
2023/06/30 06:58:19;;;;;;;3.37;1.87;;;29.70;93.20;;;;;;5052423;28;20430;-71
2023/06/30 07:00:46;;;;;;;2.80;1.40;;;30.40;84.20;;;;;;5052564;28;20404;-72
2023/06/30 07:03:12;;;;;;;1.60;1.47;;;31.10;77.40;;;;;;5052404;28;20398;-71
2023/06/30 07:05:43;;;;;;;1.80;1.53;;;31.90;72.10;;;;;;5051795;28;20449;-70
2023/06/30 07:08:09;;;;;;;1.70;1.50;;;32.50;66.10;;;;;;5052249;28;20694;-69
2023/06/30 07:10:35;;;;;;;1.53;1.30;;;33.20;58.60;;;;;;5052012;28;20413;-70
2023/06/30 07:13:01;;;;;;;1.80;1.30;;;33.70;54.80;;;;;;5051962;28;20397;-72
2023/06/30 07:15:27;;;;;;;4.13;1.57;;;34.10;52.90;;;;;;5051811;28;20202;-72
2023/06/30 07:17:53;;;;;;;5.27;1.97;;;34.60;51.20;;;;;;5052073;28;20425;-72
2023/06/30 07:20:18;;;;;;;3.03;1.20;;;35.10;48.30;;;;;;5052046;28;20412;-71
2023/06/30 07:22:44;;;;;;;2.90;1.70;;;35.40;46.50;;;;;;5052194;28;20170;-70
2023/06/30 07:25:09;;;;;;;2.70;1.53;;;35.80;45.60;;;;;;5051774;28;20190;-71
2023/06/30 07:27:38;;;;;;;3.97;1.70;;;36.30;44.30;;;;;;5052135;28;20197;-71
2023/06/30 07:30:06;;;;;;;2.10;1.50;;;36.70;42.80;;;;;;5052506;28;20174;-70
2023/06/30 07:32:33;;;;;;;2.17;1.30;;;36.90;40.90;;;;;;5052483;28;20448;-70
2023/06/30 07:35:01;;;;;;;3.10;1.57;;;37.30;41.10;;;;;;5052554;28;20888;-71
2023/06/30 07:37:26;;;;;;;2.63;1.87;;;37.80;40.70;;;;;;5052341;28;20421;-71
2023/06/30 07:39:52;;;;;;;1.80;1.50;;;38.30;40.00;;;;;;5051441;28;20483;-73
2023/06/30 07:42:17;;;;;;;3.90;2.10;;;39.00;39.30;;;;;;5051684;28;20636;-72
2023/06/30 07:44:43;;;;;;;2.33;1.60;;;39.50;37.50;;;;;;5051831;28;20166;-73
2023/06/30 07:47:09;;;;;;;1.60;1.50;;;39.70;35.80;;;;;;5051586;28;20236;-71
2023/06/30 07:49:34;;;;;;;1.77;1.33;;;39.90;34.40;;;;;;5051862;28;20175;-74
2023/06/30 07:51:59;;;;;;;2.27;1.37;;;40.00;34.00;;;;;;5051491;28;20191;-73
2023/06/30 07:54:25;;;;;;;2.63;1.53;;;40.20;33.90;;;;;;5051786;28;20510;-73
2023/06/30 07:56:50;;;;;;;1.30;1.20;;;40.30;33.90;;;;;;5051462;28;20191;-73
2023/06/30 07:59:16;;;;;;;3.50;1.70;;;40.50;33.10;;;;;;5051694;28;20178;-73
2023/06/30 08:01:41;;;;;;;2.17;1.30;;;40.90;32.30;;;;;;5051672;28;20194;-73
2023/06/30 08:04:07;;;;;;;1.80;1.30;;;41.30;32.00;;;;;;5051470;28;20197;-72
2023/06/30 08:06:32;;;;;;;3.00;1.43;;;41.50;30.50;;;;;;5051139;28;20277;-71
2023/06/30 08:08:58;;;;;;;3.53;1.80;;;41.70;30.60;;;;;;5051692;28;20163;-70
2023/06/30 08:11:25;;;;;;;2.37;1.33;;;41.80;28.80;;;;;;5051695;28;20167;-71
2023/06/30 08:13:51;;;;;;;1.87;1.37;;;41.80;28.70;;;;;;5051683;28;20155;-72
2023/06/30 08:16:16;;;;;;;2.50;1.63;;;42.10;28.40;;;;;;5050968;28;20384;-73
2023/06/30 08:18:42;;;;;;;3.60;1.90;;;42.40;28.40;;;;;;5051415;28;20635;-71
2023/06/30 08:21:07;;;;;;;2.13;1.37;;;42.80;28.30;;;;;;5052224;28;20170;-72
2023/06/30 08:23:33;;;;;;;2.17;1.57;;;43.20;28.20;;;;;;5056426;28;20163;-71
2023/06/30 08:25:58;;;;;;;2.63;1.53;;;43.30;27.50;;;;;;5054072;28;20191;-69
2023/06/30 08:28:24;;;;;;;1.50;1.40;;;43.40;27.40;;;;;;5061144;28;20186;-70
2023/06/30 08:30:50;;;;;;;1.83;1.43;;;43.40;26.60;;;;;;5051474;28;20167;-70
2023/06/30 08:33:16;;;;;;;1.67;1.50;;;43.60;27.00;;;;;;5051366;28;20171;-70
2023/06/30 08:35:41;;;;;;;1.70;1.60;;;43.80;26.90;;;;;;5058830;28;20391;-70
2023/06/30 08:38:07;;;;;;;1.70;1.60;;;44.10;26.60;;;;;;5051304;28;20194;-70
2023/06/30 08:40:32;;;;;;;1.60;1.40;;;44.30;25.60;;;;;;5054520;28;20175;-70
2023/06/30 08:42:59;;;;;;;3.40;1.40;;;44.40;25.20;;;;;;5051376;28;20246;-70
2023/06/30 08:45:26;;;;;;;1.90;1.30;;;44.60;25.20;;;;;;5053241;28;20191;-71
2023/06/30 08:47:53;;;;;;;2.07;1.63;;;44.90;24.80;;;;;;5053019;28;20392;-70
2023/06/30 08:50:21;;;;;;;2.60;1.63;;;45.30;25.00;;;;;;5051406;28;20388;-72
2023/06/30 08:52:47;;;;;;;1.80;1.70;;;45.80;25.20;;;;;;5053594;28;20419;-70
2023/06/30 08:55:13;;;;;;;2.03;1.40;;;46.00;24.60;;;;;;5054573;28;20485;-69
2023/06/30 08:57:41;;;;;;;1.60;1.40;;;46.20;24.30;;;;;;5059799;28;20481;-70
2023/06/30 09:00:07;;;;;;;2.23;1.50;;;46.60;24.80;;;;;;5055373;28;20254;-68
2023/06/30 09:02:34;;;;;;;1.60;1.50;;;46.90;24.30;;;;;;5053417;28;20802;-71
2023/06/30 09:05:00;;;;;;;2.20;1.70;;;47.20;24.20;;;;;;5056326;28;20492;-72
2023/06/30 09:07:27;;;;;;;1.70;1.60;;;47.50;24.10;;;;;;5058048;28;20520;-70
2023/06/30 09:09:56;;;;;;;3.97;1.60;;;47.70;23.70;;;;;;5055371;28;20416;-70
2023/06/30 09:12:24;;;;;;;1.50;1.40;;;48.00;23.40;;;;;;5062565;28;20383;-72
2023/06/30 09:14:53;;;;;;;2.60;1.70;;;48.10;23.60;;;;;;5067464;28;20405;-70
2023/06/30 09:17:19;;;;;;;2.30;1.83;;;48.30;22.30;;;;;;5054027;28;20459;-70
2023/06/30 09:19:44;;;;;;;1.93;1.83;;;48.20;22.10;;;;;;5054456;28;20433;-70
2023/06/30 09:22:11;;;;;;;5.93;2.30;;;48.50;22.50;;;;;;5054254;28;20167;-71
2023/06/30 09:24:36;;;;;;;2.17;1.90;;;48.90;22.80;;;;;;5054056;28;20186;-71
2023/06/30 09:27:02;;;;;;;2.07;1.60;;;49.30;22.30;;;;;;5053925;28;20425;-70
2023/06/30 09:29:33;;;;;;;1.80;1.70;;;49.80;22.20;;;;;;5053782;28;20183;-70
2023/06/30 09:32:03;;;;;;;1.77;1.67;;;50.20;22.00;;;;;;5056089;28;20175;-72
2023/06/30 09:34:29;;;;;;;2.53;1.70;;;50.60;21.40;;;;;;5057901;28;20449;-70
2023/06/30 09:36:55;;;;;;;1.80;1.70;;;50.60;21.00;;;;;;5053599;28;20893;-70
2023/06/30 09:39:21;;;;;;;2.23;2.03;;;50.60;21.20;;;;;;5053926;28;20543;-70
2023/06/30 09:41:48;;;;;;;2.00;1.90;;;50.90;21.20;;;;;;5053970;28;20388;-70
2023/06/30 09:44:17;;;;;;;1.97;1.87;;;51.20;21.60;;;;;;5053810;28;20445;-70
2023/06/30 09:46:53;;;;;;;2.40;2.13;;;51.80;20.90;;;;;;5053385;28;20457;-69
2023/06/30 09:49:45;;;;;;;2.37;2.20;;;51.90;20.50;;;;;;5053713;28;20401;-70
2023/06/30 09:52:24;;;;;;;1.90;1.70;;;51.90;20.00;;;;;;5052658;28;20527;-69
2023/06/30 09:54:49;;;;;;;2.10;1.90;;;51.90;20.20;;;;;;5055703;28;20494;-71
2023/06/30 09:57:15;;;;;;;1.97;1.70;;;51.90;20.00;;;;;;5059394;28;20464;-71
2023/06/30 09:59:41;;;;;;;1.90;1.80;;;52.30;20.50;;;;;;5057208;28;20171;-71
2023/06/30 10:02:06;;;;;;;2.33;2.00;;;52.80;19.70;;;;;;5057392;28;20199;-70
2023/06/30 10:04:32;;;;;;;1.97;1.87;;;52.90;19.20;;;;;;5055750;28;20249;-70
2023/06/30 10:06:58;;;;;;;1.77;1.63;;;52.40;18.90;;;;;;5052939;28;20206;-70
2023/06/30 10:09:24;;;;;;;2.20;2.00;;;51.90;19.20;;;;;;5053437;28;20221;-70
2023/06/30 10:11:57;;;;;;;1.90;1.80;;;51.20;19.50;;;;;;5053370;28;20427;-70
2023/06/30 10:14:30;;;;;;;2.43;2.20;;;50.90;19.60;;;;;;5053332;28;20405;-70
2023/06/30 10:16:57;;;;;;;2.20;2.00;;;50.80;19.80;;;;;;5052858;28;20455;-68
2023/06/30 10:19:24;;;;;;;2.23;1.80;;;51.00;19.80;;;;;;5053222;28;20449;-69
2023/06/30 10:21:50;;;;;;;2.47;1.57;;;50.90;19.60;;;;;;5053146;28;20409;-68
2023/06/30 10:24:19;;;;;;;1.80;1.70;;;51.10;19.50;;;;;;5059474;28;20452;-71
2023/06/30 10:26:47;;;;;;;1.70;1.60;;;51.30;19.50;;;;;;5057813;28;20203;-71
2023/06/30 10:29:12;;;;;;;2.07;1.73;;;51.50;19.90;;;;;;5054746;28;20429;-71
2023/06/30 10:31:39;;;;;;;3.00;2.07;;;51.50;18.90;;;;;;5052898;28;20429;-70
2023/06/30 10:34:05;;;;;;;2.27;2.07;;;51.70;19.10;;;;;;5056877;28;20226;-72
2023/06/30 10:36:32;;;;;;;2.07;1.97;;;52.10;19.20;;;;;;5053358;28;20801;-70
2023/06/30 10:38:58;;;;;;;2.07;1.97;;;52.50;19.00;;;;;;5056536;28;20944;-70
2023/06/30 10:41:24;;;;;;;2.20;2.03;;;52.50;18.90;;;;;;5057676;28;20417;-72
2023/06/30 10:44:06;;;;;;;1.80;1.70;;;52.60;19.20;;;;;;5058767;28;20756;-71
2023/06/30 10:46:47;;;;;;;3.00;1.73;;;52.90;18.40;;;;;;5053417;28;20205;-70
2023/06/30 10:49:19;;;;;;;2.30;2.10;;;52.00;18.40;;;;;;5052705;28;20368;-70
2023/06/30 10:51:51;;;;;;;2.13;1.97;;;51.40;18.70;;;;;;5052473;28;20434;-70
2023/06/30 10:54:27;;;;;;;1.77;1.67;;;51.40;19.10;;;;;;5052725;28;20377;-70
2023/06/30 10:57:05;;;;;;;1.83;1.63;;;51.80;19.10;;;;;;5052122;28;20420;-70
2023/06/30 10:59:42;;;;;;;1.70;1.60;;;51.70;18.70;;;;;;5052460;28;20408;-70
2023/06/30 11:02:34;;;;;;;1.83;1.73;;;51.30;18.80;;;;;;5052304;28;20828;-70
2023/06/30 11:05:22;;;;;;;2.00;1.90;;;50.60;18.30;;;;;;5048819;28;20435;-76
2023/06/30 11:07:49;;;;;;;1.80;1.70;;;50.60;18.90;;;;;;5051883;28;20972;-69
2023/06/30 11:10:33;;;;;;;1.90;1.80;;;50.70;18.70;;;;;;5052262;28;20376;-71
2023/06/30 11:13:00;;;;;;;1.80;1.70;;;51.20;18.90;;;;;;5052196;28;20432;-70
2023/06/30 11:15:35;;;;;;;2.23;2.07;;;51.30;18.90;;;;;;5050820;28;20421;-71
2023/06/30 11:18:03;;;;;;;2.00;1.90;;;52.10;19.00;;;;;;5052092;28;20470;-70
2023/06/30 11:20:29;;;;;;;2.07;1.87;;;53.00;18.70;;;;;;5052068;28;20397;-71
2023/06/30 11:23:03;;;;;;;1.90;1.80;;;53.70;17.90;;;;;;5052058;28;20405;-70
2023/06/30 11:25:30;;;;;;;2.47;2.27;;;54.30;18.70;;;;;;5051723;28;20451;-70
2023/06/30 11:27:57;;;;;;;1.90;1.80;;;55.00;17.80;;;;;;5051913;28;20422;-70
2023/06/30 11:30:24;;;;;;;2.93;2.73;;;55.50;17.60;;;;;;5052000;28;20429;-70
2023/06/30 11:32:55;;;;;;;2.57;2.37;;;55.40;17.30;;;;;;5051886;28;20408;-70
2023/06/30 11:35:21;;;;;;;2.13;2.00;;;53.90;17.00;;;;;;5051671;28;20408;-70
2023/06/30 11:37:51;;;;;;;2.80;2.60;;;52.60;17.30;;;;;;5051809;28;20433;-72
2023/06/30 11:40:17;;;;;;;5.80;2.50;;;52.60;18.10;;;;;;5051790;28;20312;-72
2023/06/30 11:42:43;;;;;;;1.90;1.80;;;52.90;17.70;;;;;;5051804;28;20401;-70
2023/06/30 11:45:09;;;;;;;2.20;2.00;;;53.20;18.10;;;;;;5051337;28;20455;-71
2023/06/30 11:47:36;;;;;;;2.03;1.70;;;53.20;17.90;;;;;;5051694;28;20626;-72
2023/06/30 11:50:06;;;;;;;2.37;1.90;;;52.70;17.70;;;;;;5051662;28;20159;-71
2023/06/30 11:52:33;;;;;;;2.87;2.23;;;52.40;17.90;;;;;;5051797;28;20411;-69
2023/06/30 11:55:01;;;;;;;2.20;2.00;;;51.90;18.10;;;;;;5051528;28;20400;-70
2023/06/30 11:57:39;;;;;;;2.00;1.80;;;51.50;18.70;;;;;;5051604;28;20494;-69
2023/06/30 12:00:22;;;;;;;2.00;1.90;;;50.90;18.50;;;;;;5051381;28;20404;-69
2023/06/30 12:02:48;;;;;;;2.00;1.90;;;48.90;18.50;;;;;;5051725;28;20380;-70
2023/06/30 12:05:25;;;;;;;1.70;1.60;;;46.50;18.80;;;;;;5051222;28;20473;-69
2023/06/30 12:07:52;;;;;;;2.17;1.97;;;45.00;20.00;;;;;;5051522;28;20444;-68
2023/06/30 12:10:18;;;;;;;2.20;1.93;;;43.50;19.80;;;;;;5051539;28;20376;-69
2023/06/30 12:12:52;;;;;;;2.47;1.73;;;42.30;20.50;;;;;;5051621;28;20468;-72
2023/06/30 12:15:18;;;;;;;1.60;1.47;;;41.20;21.70;;;;;;5051347;28;20174;-70
2023/06/30 12:17:43;;;;;;;1.73;1.60;;;39.80;22.50;;;;;;5051517;28;20413;-68
2023/06/30 12:20:11;;;;;;;2.40;1.73;;;39.00;23.50;;;;;;5051414;28;20533;-69
2023/06/30 12:22:41;;;;;;;1.47;1.23;;;39.50;24.80;;;;;;5051590;28;20167;-69
2023/06/30 12:25:08;;;;;;;2.10;1.43;;;40.90;24.70;;;;;;5051184;28;20486;-69
2023/06/30 12:27:35;;;;;;;2.47;1.90;;;42.80;23.80;;;;;;5053849;28;20399;-69
2023/06/30 12:30:01;;;;;;;1.77;1.67;;;43.80;23.10;;;;;;5055329;28;20383;-68
2023/06/30 12:32:27;;;;;;;1.77;1.50;;;44.80;22.20;;;;;;5055234;28;20448;-70
2023/06/30 12:35:03;;;;;;;2.10;1.90;;;46.30;22.20;;;;;;5055011;28;20167;-68
2023/06/30 12:37:30;;;;;;;2.07;1.53;;;46.70;21.20;;;;;;5055135;28;20392;-70
2023/06/30 12:39:59;;;;;;;2.13;1.93;;;45.50;21.20;;;;;;5055030;28;20428;-69
2023/06/30 12:42:27;;;;;;;1.83;1.60;;;43.70;20.70;;;;;;5055058;28;20397;-72
2023/06/30 12:44:53;;;;;;;2.00;1.90;;;42.40;22.00;;;;;;5054849;28;20400;-70
2023/06/30 12:47:18;;;;;;;2.30;2.10;;;41.20;22.80;;;;;;5054721;28;20425;-71